Time;durP1;ratioP1;P1;durP2;ratioP2;P2;SDS_P1;SDS_P2;PMS_P1;PMS_P2;Temp;Humidity;BMP_temperature;BMP_pressure;BME280_temperature;BME280_humidity;BME280_pressure;Samples;Min_cycle;Max_cycle;Signal;HPM_P1;HPM_P2
2022/11/07 00:03:21;;;;;;;28.27;5.18;;;14.50;84.70;;;;;;7374915;19;19923;-80
2022/11/07 00:05:50;;;;;;;33.25;5.10;;;14.50;84.70;;;;;;7375079;19;20014;-80
2022/11/07 00:08:18;;;;;;;31.63;3.92;;;14.60;84.70;;;;;;7374580;19;20013;-80
2022/11/07 00:10:47;;;;;;;43.58;4.25;;;14.60;84.60;;;;;;7376274;19;20018;-79
2022/11/07 00:13:16;;;;;;;33.35;4.85;;;14.60;84.60;;;;;;7381670;19;20082;-80
2022/11/07 00:15:45;;;;;;;40.72;4.53;;;14.70;84.50;;;;;;7394691;19;20090;-82
2022/11/07 00:18:13;;;;;;;49.33;5.28;;;14.70;84.30;;;;;;7326547;19;20018;-81
2022/11/07 00:20:45;;;;;;;33.53;4.47;;;14.70;84.30;;;;;;7367409;19;20067;-82
2022/11/07 00:23:13;;;;;;;49.75;4.68;;;14.60;84.20;;;;;;7372482;19;20512;-82
2022/11/07 00:25:42;;;;;;;31.70;4.20;;;14.70;84.20;;;;;;7375867;19;20020;-82
2022/11/07 00:28:11;;;;;;;35.38;4.35;;;14.70;84.10;;;;;;7394710;19;20022;-83
2022/11/07 00:30:39;;;;;;;29.45;3.65;;;14.70;84.20;;;;;;7374606;19;20018;-83
2022/11/07 00:33:08;;;;;;;40.92;4.38;;;14.70;84.10;;;;;;7372463;19;20014;-82
2022/11/07 00:35:37;;;;;;;40.45;4.18;;;14.60;84.30;;;;;;7371585;19;20018;-81
2022/11/07 00:38:08;;;;;;;35.58;5.00;;;14.60;84.50;;;;;;7370705;19;20713;-81
2022/11/07 00:40:37;;;;;;;21.15;3.20;;;14.50;84.60;;;;;;7373046;19;20103;-80
2022/11/07 00:43:05;;;;;;;26.98;4.15;;;14.50;84.60;;;;;;7400850;19;20018;-81
2022/11/07 00:45:34;;;;;;;27.10;3.75;;;14.50;84.90;;;;;;7376519;19;20090;-81
2022/11/07 00:48:03;;;;;;;44.15;4.90;;;14.50;84.90;;;;;;7372582;19;20090;-80
2022/11/07 00:50:32;;;;;;;27.85;4.40;;;14.40;85.30;;;;;;7371651;19;20097;-81
2022/11/07 00:53:00;;;;;;;38.00;4.20;;;14.40;85.40;;;;;;7370570;19;20015;-81
2022/11/07 00:55:33;;;;;;;31.88;4.22;;;14.50;85.10;;;;;;7369836;19;20014;-81
2022/11/07 00:58:02;;;;;;;44.50;4.50;;;14.40;85.30;;;;;;7390039;19;20082;-81
2022/11/07 01:00:31;;;;;;;39.60;4.60;;;14.50;85.10;;;;;;7368514;19;20014;-81
2022/11/07 01:05:41;;;;;;;35.33;4.53;;;14.50;84.70;;;;;;7373671;19;20337;-80
2022/11/07 01:08:09;;;;;;;40.03;4.00;;;14.60;84.60;;;;;;7372608;19;20024;-81
2022/11/07 01:10:45;;;;;;;33.05;4.50;;;14.60;84.40;;;;;;7373783;19;20010;-80
2022/11/07 01:13:13;;;;;;;21.27;3.92;;;14.60;84.40;;;;;;7391701;19;20320;-80
2022/11/07 01:15:42;;;;;;;42.03;4.75;;;14.60;84.30;;;;;;7373422;19;20025;-81
2022/11/07 01:18:11;;;;;;;42.67;4.85;;;14.60;84.30;;;;;;7367640;19;20123;-81
2022/11/07 01:20:40;;;;;;;34.22;3.65;;;14.70;84.20;;;;;;7368528;19;20078;-80
2022/11/07 01:23:09;;;;;;;37.85;4.85;;;14.70;84.10;;;;;;7369734;19;20017;-81
2022/11/07 01:25:39;;;;;;;35.95;4.50;;;14.70;84.30;;;;;;7370878;19;20333;-79
2022/11/07 01:28:11;;;;;;;24.25;3.42;;;14.70;84.10;;;;;;7392680;19;20331;-81
2022/11/07 01:30:42;;;;;;;44.58;3.53;;;14.70;84.10;;;;;;7369504;19;20031;-81
2022/11/07 01:33:11;;;;;;;39.37;4.47;;;14.80;84.00;;;;;;7372128;19;20051;-81
2022/11/07 01:35:40;;;;;;;37.72;4.65;;;14.80;83.80;;;;;;7377055;19;20102;-81
2022/11/07 01:38:09;;;;;;;38.83;4.38;;;14.80;83.70;;;;;;7370811;19;20108;-81
2022/11/07 01:43:45;;;;;;;37.17;4.28;;;14.80;83.70;;;;;;7369565;19;20469;-80
2022/11/07 01:46:13;;;;;;;35.47;4.22;;;14.60;84.10;;;;;;7392960;19;20027;-80
2022/11/07 01:48:46;;;;;;;32.28;4.15;;;14.70;84.00;;;;;;7377806;19;20022;-80
2022/11/07 01:51:16;;;;;;;30.25;4.00;;;14.80;83.90;;;;;;7401380;19;20014;-80
2022/11/07 01:53:45;;;;;;;31.52;3.53;;;14.70;84.10;;;;;;7374176;19;20025;-80
2022/11/07 01:56:17;;;;;;;38.17;4.05;;;14.70;84.10;;;;;;7398779;19;20089;-80
2022/11/07 01:58:49;;;;;;;24.00;3.67;;;14.80;84.10;;;;;;7397404;19;20390;-80
2022/11/07 02:01:19;;;;;;;33.78;3.95;;;14.80;84.00;;;;;;7321572;19;20467;-80
2022/11/07 02:03:48;;;;;;;31.15;4.15;;;14.80;84.00;;;;;;7393861;19;20032;-81
2022/11/07 02:06:22;;;;;;;30.70;4.07;;;14.80;84.00;;;;;;7371234;19;20015;-81
2022/11/07 02:08:52;;;;;;;39.58;4.50;;;14.80;84.00;;;;;;7350603;19;20011;-80
2022/11/07 02:11:21;;;;;;;33.22;4.18;;;14.70;84.10;;;;;;7371189;19;20831;-80
2022/11/07 02:13:53;;;;;;;29.63;3.55;;;14.80;84.10;;;;;;7369907;19;20024;-81
2022/11/07 02:16:21;;;;;;;37.22;4.82;;;14.60;84.30;;;;;;7371983;19;20622;-81
2022/11/07 02:18:50;;;;;;;39.40;4.15;;;14.70;84.30;;;;;;7392036;19;20018;-81
2022/11/07 02:21:30;;;;;;;33.40;4.18;;;14.50;84.60;;;;;;7366838;19;20617;-82
2022/11/07 02:24:03;;;;;;;30.33;3.28;;;14.60;84.50;;;;;;7369530;19;20054;-82
2022/11/07 02:26:35;;;;;;;29.17;3.67;;;14.50;84.90;;;;;;7379006;19;20017;-82
2022/11/07 02:29:06;;;;;;;43.47;5.05;;;14.60;84.50;;;;;;7377605;19;20024;-81
2022/11/07 02:31:35;;;;;;;34.20;3.90;;;14.70;84.30;;;;;;7409394;19;20553;-82
2022/11/07 02:34:04;;;;;;;35.80;4.00;;;14.70;84.20;;;;;;7405130;19;20027;-81
2022/11/07 02:36:33;;;;;;;39.78;3.63;;;14.80;84.10;;;;;;7401579;19;20458;-81
2022/11/07 02:39:02;;;;;;;38.22;4.45;;;14.70;84.10;;;;;;7395445;19;20441;-81
2022/11/07 02:41:36;;;;;;;34.58;4.10;;;14.80;84.00;;;;;;7396004;19;20433;-81
2022/11/07 02:44:11;;;;;;;28.70;3.13;;;14.70;84.00;;;;;;7402497;19;20018;-81
2022/11/07 02:46:41;;;;;;;32.15;4.30;;;14.60;84.30;;;;;;7405034;19;20110;-81
2022/11/07 02:49:10;;;;;;;35.22;4.60;;;14.60;84.30;;;;;;7401619;19;20022;-81
2022/11/07 02:51:39;;;;;;;36.25;4.10;;;14.40;84.70;;;;;;7405072;19;20387;-81
2022/11/07 02:54:07;;;;;;;29.27;5.15;;;14.50;84.70;;;;;;7402904;19;20018;-81
2022/11/07 02:56:39;;;;;;;40.95;3.90;;;14.60;84.30;;;;;;7405090;19;20406;-81
2022/11/07 02:59:07;;;;;;;34.78;3.55;;;14.60;84.00;;;;;;7405532;19;20086;-82
2022/11/07 03:01:36;;;;;;;26.75;3.38;;;14.60;84.50;;;;;;7401276;19;20321;-81
2022/11/07 03:04:05;;;;;;;33.65;4.05;;;14.60;84.00;;;;;;7400566;19;20089;-81
2022/11/07 03:06:33;;;;;;;34.78;4.45;;;14.60;84.10;;;;;;7404120;19;20026;-81
2022/11/07 03:09:02;;;;;;;33.45;4.55;;;14.60;84.70;;;;;;7402331;19;20089;-81
2022/11/07 03:11:31;;;;;;;24.33;3.28;;;14.50;84.30;;;;;;7407648;19;20021;-81
2022/11/07 03:14:02;;;;;;;32.53;4.65;;;14.50;84.30;;;;;;7407439;19;20036;-81
2022/11/07 03:16:31;;;;;;;27.13;3.38;;;14.50;84.40;;;;;;7407515;19;20027;-81
2022/11/07 03:19:00;;;;;;;31.00;3.45;;;14.60;84.30;;;;;;7404845;19;20473;-81
2022/11/07 03:21:28;;;;;;;36.35;4.30;;;14.40;84.60;;;;;;7402104;19;20022;-81
2022/11/07 03:23:57;;;;;;;28.10;3.70;;;14.40;84.80;;;;;;7403911;19;20747;-82
2022/11/07 03:26:26;;;;;;;23.73;4.03;;;14.40;85.00;;;;;;7404122;19;20449;-82
2022/11/07 03:28:54;;;;;;;40.47;4.22;;;14.50;85.00;;;;;;7403444;19;20081;-81
2022/11/07 03:31:25;;;;;;;31.60;4.10;;;14.60;84.40;;;;;;7403262;19;20086;-81
2022/11/07 03:33:54;;;;;;;37.00;3.75;;;14.50;84.60;;;;;;7405208;19;20090;-81
2022/11/07 03:36:23;;;;;;;32.28;3.80;;;14.50;84.50;;;;;;7404854;19;20382;-81
2022/11/07 03:38:51;;;;;;;37.63;4.25;;;14.70;84.40;;;;;;7403675;19;20018;-82
2022/11/07 03:41:20;;;;;;;29.20;4.50;;;14.80;84.10;;;;;;7407954;19;20026;-81
2022/11/07 03:43:49;;;;;;;27.73;3.67;;;14.80;83.80;;;;;;7404032;19;20082;-81
2022/11/07 03:46:18;;;;;;;26.02;3.30;;;14.70;84.10;;;;;;7404282;19;20441;-81
2022/11/07 03:48:50;;;;;;;35.20;3.38;;;14.80;84.00;;;;;;7403783;19;20014;-82
2022/11/07 03:51:18;;;;;;;48.92;3.97;;;14.80;83.90;;;;;;7402491;19;20343;-82
2022/11/07 03:53:47;;;;;;;38.35;3.80;;;14.90;83.70;;;;;;7402867;19;20508;-81
2022/11/07 03:56:16;;;;;;;35.63;4.50;;;14.90;83.60;;;;;;7407464;19;20015;-82
2022/11/07 03:58:44;;;;;;;29.42;3.45;;;14.80;83.60;;;;;;7407752;19;20103;-81
2022/11/07 04:01:13;;;;;;;28.67;3.42;;;14.80;83.80;;;;;;7403665;19;20022;-81
2022/11/07 04:03:42;;;;;;;31.27;4.03;;;14.80;83.80;;;;;;7402847;19;20082;-82
2022/11/07 04:06:13;;;;;;;26.73;3.70;;;14.90;83.70;;;;;;7406730;19;20022;-82
2022/11/07 04:08:42;;;;;;;25.88;3.45;;;14.90;83.70;;;;;;7403904;19;20039;-81
2022/11/07 04:17:17;;;;;;;36.70;3.97;;;14.90;83.50;;;;;;7400257;19;20022;-82
2022/11/07 04:19:25;;;;;;;34.28;3.58;;;14.90;83.60;;;;;;7403027;19;20014;-82
2022/11/07 04:21:56;;;;;;;39.45;4.60;;;14.90;83.30;;;;;;7402794;19;20018;-82
2022/11/07 04:24:25;;;;;;;28.63;3.40;;;14.90;83.30;;;;;;7403121;19;20022;-82
2022/11/07 04:29:37;;;;;;;24.83;3.70;;;14.90;83.60;;;;;;7397784;19;20058;-81
2022/11/07 04:32:06;;;;;;;29.73;4.15;;;14.90;83.70;;;;;;7401449;19;20025;-82
2022/11/07 04:34:35;;;;;;;24.60;3.85;;;14.90;83.60;;;;;;7396979;19;20022;-82
2022/11/07 04:37:06;;;;;;;30.60;3.65;;;14.80;83.90;;;;;;7399407;19;20505;-82
2022/11/07 04:39:35;;;;;;;35.78;3.90;;;14.90;83.80;;;;;;7398256;19;20018;-82
2022/11/07 04:42:03;;;;;;;42.13;3.83;;;14.80;84.30;;;;;;7396061;19;20450;-81
2022/11/07 04:44:32;;;;;;;30.80;3.80;;;14.80;84.10;;;;;;7398029;19;20018;-81
2022/11/07 04:47:01;;;;;;;38.85;3.92;;;14.90;84.00;;;;;;7397199;19;20039;-81
2022/11/07 04:49:29;;;;;;;25.13;3.42;;;14.90;83.80;;;;;;7396981;19;20022;-81
2022/11/07 04:51:58;;;;;;;27.98;3.80;;;14.80;84.20;;;;;;7396561;19;20075;-82
2022/11/07 04:54:30;;;;;;;36.55;4.07;;;14.90;84.30;;;;;;7400484;19;20019;-82
2022/11/07 04:56:58;;;;;;;32.63;3.45;;;14.90;84.10;;;;;;7400897;19;20031;-82
2022/11/07 04:59:27;;;;;;;24.33;3.42;;;14.90;84.00;;;;;;7398718;19;20525;-82
2022/11/07 05:01:56;;;;;;;34.20;4.22;;;14.90;84.00;;;;;;7398478;19;20022;-82
2022/11/07 05:04:24;;;;;;;29.27;3.85;;;14.90;84.10;;;;;;7398363;19;20019;-81
2022/11/07 05:06:53;;;;;;;31.27;3.95;;;14.50;85.30;;;;;;7399773;19;20054;-82
2022/11/07 05:09:22;;;;;;;38.65;4.78;;;14.70;85.00;;;;;;7399350;19;20124;-82
2022/11/07 05:11:54;;;;;;;36.28;3.85;;;14.80;84.70;;;;;;7400784;19;20031;-82
2022/11/07 05:14:22;;;;;;;36.45;3.90;;;14.70;84.90;;;;;;7400718;19;20018;-82
2022/11/07 05:16:54;;;;;;;26.15;3.88;;;14.90;84.60;;;;;;7398145;19;20033;-82
2022/11/07 05:19:23;;;;;;;25.60;3.70;;;14.90;84.40;;;;;;7400234;19;20024;-80
2022/11/07 05:23:11;;;;;;;20.02;3.50;;;15.00;84.10;;;;;;7401328;19;20028;-81
2022/11/07 05:24:39;;;;;;;27.50;3.63;;;15.00;83.90;;;;;;7401761;19;20337;-81
2022/11/07 05:27:18;;;;;;;24.42;3.47;;;14.90;84.10;;;;;;7397711;19;20379;-82
2022/11/07 05:29:47;;;;;;;28.25;3.33;;;14.80;85.60;;;;;;7399405;19;20036;-82
2022/11/07 05:32:16;;;;;;;27.77;4.28;;;15.00;85.20;;;;;;7400968;19;20026;-82
2022/11/07 05:34:45;;;;;;;33.15;3.88;;;15.00;84.10;;;;;;7401924;19;20014;-82
2022/11/07 05:37:15;;;;;;;32.92;3.75;;;14.80;84.70;;;;;;7400833;19;20022;-81
2022/11/07 05:39:44;;;;;;;32.65;4.25;;;14.90;84.90;;;;;;7400139;19;20504;-81
2022/11/07 05:42:15;;;;;;;46.38;4.75;;;15.00;84.60;;;;;;7398462;19;20046;-81
2022/11/07 05:44:43;;;;;;;;;;;15.00;84.40;;;;;;7400545;19;20387;-80
2022/11/07 05:47:12;;;;;;;42.42;4.18;;;15.00;84.10;;;;;;7400569;19;19975;-81
2022/11/07 05:49:41;;;;;;;30.00;3.90;;;14.90;84.60;;;;;;7400195;19;20031;-81
2022/11/07 05:52:10;;;;;;;31.05;3.63;;;15.00;84.40;;;;;;7400701;19;20018;-81
2022/11/07 05:54:38;;;;;;;31.08;4.63;;;14.90;84.40;;;;;;7399481;19;20567;-80
2022/11/07 05:57:07;;;;;;;32.75;4.25;;;14.70;85.00;;;;;;7399770;19;20302;-80
2022/11/07 05:59:38;;;;;;;28.10;3.72;;;14.90;84.80;;;;;;7400710;19;20093;-80
2022/11/07 06:02:07;;;;;;;26.35;3.22;;;14.90;84.40;;;;;;7404641;19;20054;-81
2022/11/07 06:04:36;;;;;;;32.85;4.40;;;15.00;84.20;;;;;;7405484;19;20010;-81
2022/11/07 06:07:04;;;;;;;20.58;3.05;;;15.00;84.20;;;;;;7401888;19;20015;-81
2022/11/07 06:09:33;;;;;;;36.80;4.07;;;15.10;84.10;;;;;;7399845;19;20031;-82
2022/11/07 06:12:02;;;;;;;32.45;4.32;;;14.90;84.60;;;;;;7402019;19;20393;-81
2022/11/07 06:14:31;;;;;;;21.65;3.90;;;15.00;85.10;;;;;;7400064;19;20035;-83
2022/11/07 06:17:02;;;;;;;29.67;3.58;;;15.10;84.30;;;;;;7398825;19;20086;-82
2022/11/07 06:19:31;;;;;;;27.73;3.60;;;15.10;84.10;;;;;;7403957;19;20554;-82
2022/11/07 06:22:01;;;;;;;25.20;3.40;;;15.20;83.90;;;;;;7403418;19;20085;-82
2022/11/07 06:24:30;;;;;;;18.38;3.00;;;15.10;83.80;;;;;;7408735;19;20098;-82
2022/11/07 06:26:59;;;;;;;31.23;4.28;;;15.10;83.90;;;;;;7404565;19;20022;-83
2022/11/07 06:29:27;;;;;;;22.60;3.35;;;15.10;83.90;;;;;;7403923;19;20022;-82
2022/11/07 06:31:56;;;;;;;25.20;3.55;;;15.10;83.90;;;;;;7405668;19;20453;-82
2022/11/07 06:34:27;;;;;;;30.38;3.67;;;15.10;84.40;;;;;;7404787;19;20098;-82
2022/11/07 06:36:57;;;;;;;30.30;3.65;;;15.10;85.00;;;;;;7409297;19;20026;-83
2022/11/07 06:39:25;;;;;;;20.48;3.65;;;15.00;84.30;;;;;;7407896;19;20024;-82
2022/11/07 06:41:54;;;;;;;24.20;3.20;;;15.10;84.30;;;;;;7406794;19;20022;-82
2022/11/07 06:44:23;;;;;;;27.73;3.22;;;15.10;84.10;;;;;;7410131;19;20043;-83
2022/11/07 06:46:52;;;;;;;33.72;4.32;;;15.20;83.80;;;;;;7417137;19;20070;-83
2022/11/07 06:49:22;;;;;;;27.63;3.72;;;15.20;83.60;;;;;;7404373;19;20032;-82
2022/11/07 06:51:53;;;;;;;25.20;3.63;;;15.20;83.70;;;;;;7402030;19;20514;-82
2022/11/07 06:54:22;;;;;;;30.10;4.05;;;15.20;83.90;;;;;;7403579;19;20496;-83
2022/11/07 06:56:51;;;;;;;34.88;3.95;;;15.10;84.10;;;;;;7406844;19;20011;-82
2022/11/07 06:59:20;;;;;;;28.65;3.42;;;15.10;84.40;;;;;;7405700;19;20043;-83
2022/11/07 07:01:50;;;;;;;27.20;3.70;;;15.20;84.50;;;;;;7409376;19;20014;-82
2022/11/07 07:04:19;;;;;;;26.00;3.65;;;15.20;84.10;;;;;;7406498;19;20081;-82
2022/11/07 07:06:48;;;;;;;26.85;3.97;;;15.20;84.20;;;;;;7404253;19;20026;-83
2022/11/07 07:09:19;;;;;;;28.13;3.78;;;15.10;84.70;;;;;;7403679;19;20018;-83
2022/11/07 07:11:48;;;;;;;28.70;3.78;;;14.90;85.10;;;;;;7404400;19;20018;-82
2022/11/07 07:14:17;;;;;;;29.75;3.28;;;15.10;84.80;;;;;;7402482;19;20106;-83
2022/11/07 07:16:46;;;;;;;27.63;3.75;;;15.20;84.50;;;;;;7403975;19;20039;-83
2022/11/07 07:19:14;;;;;;;28.67;3.10;;;15.10;84.60;;;;;;7406415;19;20012;-82
2022/11/07 07:21:43;;;;;;;20.27;3.30;;;15.20;84.60;;;;;;7402344;19;20022;-82
2022/11/07 07:24:12;;;;;;;26.67;4.18;;;15.10;85.50;;;;;;7406864;19;20054;-82
2022/11/07 07:26:43;;;;;;;23.55;3.47;;;15.30;84.50;;;;;;7413262;19;20011;-83
2022/11/07 07:29:12;;;;;;;24.23;2.95;;;15.30;84.20;;;;;;7411129;19;20035;-83
2022/11/07 07:31:40;;;;;;;24.73;3.67;;;15.40;84.10;;;;;;7403393;19;20026;-82
2022/11/07 07:34:09;;;;;;;24.48;3.20;;;15.40;83.90;;;;;;7404167;19;20110;-83
2022/11/07 07:36:38;;;;;;;28.30;2.97;;;15.40;83.70;;;;;;7405323;19;20326;-82
2022/11/07 07:39:06;;;;;;;24.27;2.88;;;15.40;83.90;;;;;;7403102;19;20497;-83
2022/11/07 07:41:35;;;;;;;27.40;3.75;;;15.20;84.50;;;;;;7404081;19;20018;-82
2022/11/07 07:44:07;;;;;;;25.27;3.85;;;15.30;84.40;;;;;;7403812;19;20094;-82
2022/11/07 07:46:35;;;;;;;18.13;3.10;;;15.30;84.50;;;;;;7405622;19;20026;-83
2022/11/07 07:49:04;;;;;;;23.60;3.35;;;15.20;84.70;;;;;;7408548;19;20047;-83
2022/11/07 07:51:33;;;;;;;36.67;3.53;;;15.40;84.60;;;;;;7406990;19;20022;-83
2022/11/07 07:54:01;;;;;;;31.45;3.47;;;15.40;85.30;;;;;;7403257;19;20556;-81
2022/11/07 07:56:30;;;;;;;30.17;4.28;;;15.50;84.20;;;;;;7406588;19;20082;-82
2022/11/07 07:58:59;;;;;;;22.15;3.17;;;15.60;84.00;;;;;;7402421;19;20082;-82
2022/11/07 08:01:30;;;;;;;22.00;3.35;;;15.50;84.10;;;;;;7404622;19;20029;-83
2022/11/07 08:03:59;;;;;;;26.83;3.78;;;15.50;84.20;;;;;;7416125;19;20032;-89
2022/11/07 08:06:28;;;;;;;26.20;3.65;;;15.30;84.80;;;;;;7409650;19;20039;-85
2022/11/07 08:08:56;;;;;;;26.38;2.97;;;15.40;84.90;;;;;;7411270;19;20101;-85
2022/11/07 08:11:26;;;;;;;24.92;3.35;;;15.50;84.80;;;;;;7415148;19;20022;-85
2022/11/07 08:13:55;;;;;;;25.77;3.88;;;15.50;85.00;;;;;;7419711;19;20070;-85
2022/11/07 08:16:24;;;;;;;21.05;3.92;;;15.50;85.00;;;;;;7406716;19;20039;-86
2022/11/07 08:18:55;;;;;;;27.88;3.67;;;15.70;84.60;;;;;;7409120;19;20149;-90
2022/11/07 08:21:23;;;;;;;28.45;3.53;;;15.80;84.60;;;;;;7413323;19;20010;-89
2022/11/07 08:29:06;;;;;;;29.63;3.38;;;15.70;83.50;;;;;;7380705;19;20037;-92
2022/11/07 08:31:36;;;;;;;38.58;3.72;;;15.80;83.20;;;;;;7414095;19;20009;-86
2022/11/07 08:34:07;;;;;;;19.67;2.70;;;15.90;82.90;;;;;;7404107;19;20014;-92
2022/11/07 08:46:50;;;;;;;20.63;2.80;;;15.90;82.70;;;;;;7351670;19;20262;-91
2022/11/07 08:49:21;;;;;;;18.40;2.45;;;15.80;83.40;;;;;;7393829;19;20016;-90
2022/11/07 08:51:50;;;;;;;22.10;2.85;;;15.70;83.50;;;;;;7425846;19;20446;-89
2022/11/07 08:54:20;;;;;;;24.42;3.33;;;15.90;83.70;;;;;;7400502;19;20011;-89
2022/11/07 08:56:48;;;;;;;21.48;3.22;;;16.00;83.40;;;;;;7319592;19;20011;-88
2022/11/07 08:59:17;;;;;;;19.25;3.13;;;16.20;83.10;;;;;;7417084;19;20014;-90
2022/11/07 09:01:46;;;;;;;19.90;3.00;;;16.30;82.50;;;;;;7416859;19;20043;-90
2022/11/07 09:14:34;;;;;;;24.60;2.80;;;16.20;82.40;;;;;;7349584;19;20018;-91
2022/11/07 09:22:08;;;;;;;23.20;3.38;;;16.20;82.30;;;;;;7375728;19;20014;-78
2022/11/07 09:29:53;;;;;;;16.38;2.67;;;16.10;82.80;;;;;;7362391;19;20014;-81
2022/11/07 09:45:52;;;;;;;21.85;2.47;;;16.20;82.70;;;;;;7407011;19;20014;-90
2022/11/07 09:48:27;;;;;;;20.65;2.67;;;16.10;82.40;;;;;;7406691;19;20026;-89
2022/11/07 09:58:44;;;;;;;23.23;3.45;;;16.40;81.90;;;;;;7310657;19;20059;-80
2022/11/07 10:03:50;;;;;;;22.25;3.13;;;16.20;82.80;;;;;;7380725;19;20075;-81
2022/11/07 10:06:25;;;;;;;16.38;3.38;;;16.30;82.10;;;;;;7396603;19;20011;-89
2022/11/07 10:22:17;;;;;;;27.45;3.40;;;17.00;80.10;;;;;;7359601;19;20003;-92
2022/11/07 10:25:01;;;;;;;17.38;2.90;;;17.00;79.70;;;;;;7335812;19;20015;-89
2022/11/07 10:32:51;;;;;;;17.85;3.03;;;17.10;79.50;;;;;;7356258;19;20290;-91
2022/11/07 10:35:25;;;;;;;26.20;3.05;;;17.00;79.50;;;;;;7394148;19;20025;-89
2022/11/07 10:43:34;;;;;;;20.10;3.35;;;17.10;79.40;;;;;;7370031;19;20260;-88
2022/11/07 10:46:04;;;;;;;22.85;2.85;;;17.10;79.60;;;;;;7408493;19;20093;-90
2022/11/07 10:48:34;;;;;;;22.42;3.00;;;17.00;79.40;;;;;;7408492;19;20084;-89
2022/11/07 10:51:03;;;;;;;18.25;2.85;;;16.90;80.10;;;;;;7396903;19;20003;-92
2022/11/07 10:53:44;;;;;;;20.30;2.97;;;17.00;80.00;;;;;;7326346;19;20891;-91
2022/11/07 10:58:48;;;;;;;24.70;3.47;;;17.10;79.60;;;;;;7407074;19;20010;-87
2022/11/07 11:03:54;;;;;;;16.38;2.80;;;16.90;80.00;;;;;;7299564;19;20220;-85
2022/11/07 11:11:36;;;;;;;20.70;4.38;;;17.00;79.50;;;;;;7420809;19;19957;-89
2022/11/07 11:14:07;;;;;;;21.27;3.40;;;17.10;79.70;;;;;;7422352;19;20018;-90
2022/11/07 11:16:38;;;;;;;25.50;3.10;;;17.10;79.40;;;;;;7422957;19;20027;-90
2022/11/07 11:21:59;;;;;;;15.70;2.83;;;17.10;79.00;;;;;;7384998;19;20006;-91
2022/11/07 11:24:34;;;;;;;21.23;2.78;;;17.10;79.30;;;;;;7406417;19;20022;-91
2022/11/07 11:37:29;;;;;;;19.52;3.55;;;17.50;77.40;;;;;;7294878;19;20018;-93
2022/11/07 11:52:56;;;;;;;14.52;2.50;;;17.30;77.80;;;;;;7368836;19;21038;-89
2022/11/07 12:03:41;;;;;;;18.33;2.88;;;17.70;76.80;;;;;;7407215;19;20017;-82
2022/11/07 12:06:21;;;;;;;19.98;2.97;;;17.80;76.30;;;;;;7402705;19;20018;-81
2022/11/07 12:09:28;;;;;;;18.85;3.03;;;17.40;76.30;;;;;;7409128;19;20321;-84
2022/11/07 12:15:11;;;;;;;19.90;2.85;;;17.40;76.70;;;;;;7398331;19;20023;-89
2022/11/07 12:17:48;;;;;;;11.45;2.40;;;17.70;76.80;;;;;;7411095;19;20015;-91
2022/11/07 12:20:23;;;;;;;20.45;2.50;;;17.70;76.10;;;;;;7430114;19;20017;-91
2022/11/07 12:23:12;;;;;;;23.23;2.63;;;17.70;76.30;;;;;;7428037;19;20010;-84
2022/11/07 12:25:46;;;;;;;22.40;3.08;;;17.80;76.30;;;;;;7427632;19;20014;-85
2022/11/07 12:28:32;;;;;;;25.42;2.90;;;17.60;75.90;;;;;;7410162;19;20006;-85
2022/11/07 12:31:11;;;;;;;22.05;3.00;;;17.60;76.30;;;;;;7404815;19;20029;-88
2022/11/07 12:33:50;;;;;;;27.80;3.38;;;17.60;78.00;;;;;;7412591;19;20539;-89
2022/11/07 12:36:32;;;;;;;16.80;2.58;;;17.60;76.70;;;;;;7414515;19;20109;-88
2022/11/07 12:39:21;;;;;;;25.00;3.13;;;17.70;76.30;;;;;;7413571;19;20014;-88
2022/11/07 12:41:57;;;;;;;26.40;5.93;;;17.80;76.10;;;;;;7414183;19;20014;-89
2022/11/07 12:44:49;;;;;;;16.33;3.25;;;17.90;76.30;;;;;;7418879;19;20018;-88
2022/11/07 12:47:37;;;;;;;15.10;2.22;;;17.90;75.40;;;;;;7418102;19;20026;-89
2022/11/07 12:50:25;;;;;;;20.63;2.50;;;17.90;75.50;;;;;;7414036;19;20018;-89
2022/11/07 12:53:07;;;;;;;16.50;3.35;;;18.00;75.80;;;;;;7413398;19;20121;-90
2022/11/07 12:55:42;;;;;;;21.25;4.00;;;18.20;75.60;;;;;;7411001;19;20025;-88
2022/11/07 12:58:18;;;;;;;15.93;2.60;;;18.30;75.10;;;;;;7409026;19;20034;-89
2022/11/07 13:00:47;;;;;;;10.73;2.95;;;18.20;75.10;;;;;;7412915;19;20014;-88
2022/11/07 13:03:59;;;;;;;18.98;2.50;;;18.20;75.10;;;;;;7410208;19;20437;-89
2022/11/07 13:06:37;;;;;;;16.40;2.85;;;18.20;75.60;;;;;;7409600;19;20010;-88
2022/11/07 13:09:15;;;;;;;19.58;2.50;;;17.90;74.10;;;;;;7410121;19;20018;-82
2022/11/07 13:11:50;;;;;;;16.35;2.33;;;17.80;74.10;;;;;;7401106;19;20184;-88
2022/11/07 13:14:27;;;;;;;11.98;1.80;;;17.70;73.70;;;;;;7410670;19;20032;-87
2022/11/07 13:17:13;;;;;;;11.43;2.03;;;17.50;73.40;;;;;;7402526;19;20027;-83
2022/11/07 13:19:45;;;;;;;11.30;1.90;;;17.50;73.10;;;;;;7399394;19;20026;-83
2022/11/07 13:22:33;;;;;;;;;;;17.40;72.60;;;;;;7405707;19;20031;-84
2022/11/07 13:25:25;;;;;;;12.90;1.98;;;17.40;72.50;;;;;;7403747;19;19968;-82
2022/11/07 13:28:07;;;;;;;15.75;1.90;;;17.20;72.90;;;;;;7399737;19;20011;-84
2022/11/07 13:30:39;;;;;;;11.27;1.58;;;17.20;72.70;;;;;;7401614;19;20022;-83
2022/11/07 13:33:08;;;;;;;9.27;1.77;;;17.30;72.50;;;;;;7412380;19;20032;-84
2022/11/07 13:35:38;;;;;;;16.00;1.60;;;17.30;72.50;;;;;;7395128;19;20321;-82
2022/11/07 13:38:14;;;;;;;8.05;1.92;;;17.40;72.50;;;;;;7396278;19;20129;-82
2022/11/07 13:40:48;;;;;;;12.48;2.83;;;17.30;73.80;;;;;;7398820;19;20082;-81
2022/11/07 13:43:20;;;;;;;13.18;2.42;;;17.30;74.30;;;;;;7399075;19;20082;-83
2022/11/07 13:45:54;;;;;;;10.52;2.80;;;17.40;74.10;;;;;;7400974;19;20014;-89
2022/11/07 13:48:25;;;;;;;11.07;2.35;;;17.40;74.20;;;;;;7420528;19;20025;-87
2022/11/07 13:51:00;;;;;;;8.63;2.40;;;17.50;74.40;;;;;;7411058;19;20018;-85
2022/11/07 13:53:36;;;;;;;11.07;1.90;;;17.60;74.30;;;;;;7398340;19;20077;-82
2022/11/07 13:56:15;;;;;;;15.13;3.10;;;17.50;74.10;;;;;;7401510;19;20060;-82
2022/11/07 13:58:46;;;;;;;16.20;3.00;;;17.50;74.20;;;;;;7404675;19;20015;-82
2022/11/07 14:01:22;;;;;;;15.67;5.03;;;17.60;74.50;;;;;;7400950;19;20034;-84
2022/11/07 14:03:51;;;;;;;14.95;3.15;;;17.70;75.00;;;;;;7400432;19;20271;-83
2022/11/07 14:06:20;;;;;;;12.43;2.75;;;17.80;75.40;;;;;;7402192;19;20022;-84
2022/11/07 14:08:51;;;;;;;9.15;2.47;;;18.00;75.10;;;;;;7400160;19;20097;-83
2022/11/07 14:11:23;;;;;;;11.90;3.05;;;18.20;74.30;;;;;;7395840;19;20043;-82
2022/11/07 14:13:55;;;;;;;13.35;2.92;;;18.30;73.90;;;;;;7400311;19;20086;-84
2022/11/07 14:16:25;;;;;;;17.48;3.83;;;18.30;73.60;;;;;;7399554;19;20014;-85
2022/11/07 14:18:59;;;;;;;13.67;4.53;;;18.20;73.90;;;;;;7401177;19;20027;-83
2022/11/07 14:21:29;;;;;;;14.05;2.90;;;18.10;74.10;;;;;;7405221;19;20279;-82
2022/11/07 14:24:01;;;;;;;16.23;2.85;;;18.00;74.30;;;;;;7398316;19;20462;-83
2022/11/07 14:26:31;;;;;;;16.52;3.25;;;18.00;74.90;;;;;;7399002;19;20018;-83
2022/11/07 14:29:01;;;;;;;14.23;3.03;;;17.90;75.20;;;;;;7399161;19;20010;-82
2022/11/07 14:31:31;;;;;;;13.23;2.58;;;18.00;75.30;;;;;;7396749;19;20081;-82
2022/11/07 14:34:02;;;;;;;13.32;2.42;;;18.10;75.20;;;;;;7396370;19;20085;-85
2022/11/07 14:36:32;;;;;;;15.32;3.05;;;18.20;75.30;;;;;;7400158;19;20022;-83
2022/11/07 14:39:10;;;;;;;18.67;2.58;;;18.20;75.40;;;;;;7402197;19;20019;-84
2022/11/07 14:41:42;;;;;;;15.80;3.53;;;18.20;75.50;;;;;;7406386;19;20098;-85
2022/11/07 14:44:16;;;;;;;18.83;3.05;;;18.20;75.50;;;;;;7407389;19;20034;-82
2022/11/07 14:46:45;;;;;;;15.10;2.80;;;18.20;75.50;;;;;;7407342;19;20018;-81
2022/11/07 14:49:26;;;;;;;13.90;2.85;;;18.20;75.80;;;;;;7405426;19;20094;-82
2022/11/07 14:51:56;;;;;;;14.40;3.00;;;18.20;76.10;;;;;;7401239;19;20105;-82
2022/11/07 14:54:33;;;;;;;16.73;3.38;;;18.30;76.00;;;;;;7406128;19;20014;-82
2022/11/07 14:57:04;;;;;;;16.50;3.25;;;18.30;75.90;;;;;;7407746;19;20027;-81
2022/11/07 14:59:34;;;;;;;11.57;2.45;;;18.20;76.00;;;;;;7412157;19;20019;-81
2022/11/07 15:02:16;;;;;;;16.25;3.13;;;18.20;76.00;;;;;;7407805;19;20046;-82
2022/11/07 15:04:47;;;;;;;33.30;2.90;;;18.10;75.80;;;;;;7406355;19;20030;-81
2022/11/07 15:07:23;;;;;;;16.60;3.05;;;18.10;75.90;;;;;;7405871;19;20035;-79
2022/11/07 15:09:56;;;;;;;16.20;3.03;;;17.90;76.10;;;;;;7409433;19;20010;-86
2022/11/07 15:12:27;;;;;;;16.00;3.05;;;17.90;76.30;;;;;;7403683;19;20113;-84
2022/11/07 15:15:05;;;;;;;15.45;2.83;;;17.70;76.50;;;;;;7406536;19;20524;-82
2022/11/07 15:17:37;;;;;;;26.05;3.42;;;17.80;76.90;;;;;;7402645;19;20015;-83
2022/11/07 15:20:08;;;;;;;12.23;2.65;;;17.80;77.30;;;;;;7404674;19;20011;-81
2022/11/07 15:22:40;;;;;;;17.63;3.05;;;17.70;77.60;;;;;;7404488;19;20648;-83
2022/11/07 15:25:29;;;;;;;15.45;3.10;;;17.60;77.80;;;;;;7403380;19;20015;-83
2022/11/07 15:27:57;;;;;;;16.00;2.80;;;17.60;78.10;;;;;;7403574;19;20022;-83